Time;durP1;ratioP1;P1;durP2;ratioP2;P2;SDS_P1;SDS_P2;PMS_P1;PMS_P2;Temp;Humidity;BMP_temperature;BMP_pressure;BME280_temperature;BME280_humidity;BME280_pressure;Samples;Min_cycle;Max_cycle;Signal;HPM_P1;HPM_P2
2024/04/02 00:00:33;;;;;;;2.42;1.80;;;;;;;;;;5149670;27;20476;-67
2024/04/02 00:03:00;;;;;;;3.03;1.65;;;;;;;;;;5153472;27;20034;-67
2024/04/02 00:05:26;;;;;;;2.30;1.80;;;;;;;;;;5147992;27;20106;-67
2024/04/02 00:07:52;;;;;;;5.10;2.05;;;;;;;;;;5141382;27;20107;-67
2024/04/02 00:10:18;;;;;;;2.00;1.80;;;;;;;;;;5156181;27;20141;-67
2024/04/02 00:12:44;;;;;;;2.15;1.58;;;;;;;;;;5151393;27;20037;-67
2024/04/02 00:15:10;;;;;;;2.42;1.77;;;;;;;;;;5154792;27;20477;-67
2024/04/02 00:17:37;;;;;;;3.28;1.67;;;;;;;;;;5135950;27;20513;-67
2024/04/02 00:20:06;;;;;;;2.13;1.83;;;;;;;;;;5155436;27;20027;-67
2024/04/02 00:22:32;;;;;;;2.08;1.58;;;;;;;;;;5149099;27;20022;-66
2024/04/02 00:24:58;;;;;;;2.97;2.10;;;;;;;;;;5155684;27;20022;-66
2024/04/02 00:27:24;;;;;;;1.63;1.48;;;;;;;;;;5151171;27;20077;-66
2024/04/02 00:29:50;;;;;;;2.38;1.80;;;;;;;;;;5142244;27;20476;-66
2024/04/02 00:32:16;;;;;;;1.55;1.40;;;;;;;;;;5151395;27;20038;-66
2024/04/02 00:34:45;;;;;;;2.50;1.60;;;;;;;;;;5153495;27;20096;-67
2024/04/02 00:37:11;;;;;;;4.28;2.03;;;;;;;;;;5153347;27;20026;-66
2024/04/02 00:39:37;;;;;;;1.80;1.50;;;;;;;;;;5153009;27;20082;-66
2024/04/02 00:42:04;;;;;;;2.13;1.50;;;;;;;;;;5141342;27;20024;-67
2024/04/02 00:44:30;;;;;;;2.25;1.42;;;;;;;;;;5154109;27;20035;-66
2024/04/02 00:46:57;;;;;;;2.20;1.60;;;;;;;;;;5153983;27;20091;-66
2024/04/02 00:49:23;;;;;;;2.22;1.70;;;;;;;;;;5149385;27;20038;-66
2024/04/02 00:51:49;;;;;;;2.72;1.20;;;;;;;;;;5132134;27;20027;-66
2024/04/02 00:54:16;;;;;;;1.50;1.40;;;;;;;;;;5150845;27;20101;-66
2024/04/02 00:56:42;;;;;;;2.83;2.05;;;;;;;;;;5154787;27;20032;-67
2024/04/02 00:59:09;;;;;;;1.50;1.40;;;;;;;;;;5149398;27;20023;-67
2024/04/02 01:01:36;;;;;;;1.95;1.63;;;;;;;;;;5147247;27;20034;-67
2024/04/02 01:04:02;;;;;;;2.58;1.95;;;;;;;;;;5135818;27;20166;-66
2024/04/02 01:06:28;;;;;;;1.70;1.60;;;;;;;;;;5155049;27;20034;-66
2024/04/02 01:08:54;;;;;;;1.67;1.52;;;13.70;99.90;;;;;;5120906;27;20484;-66
2024/04/02 01:11:20;;;;;;;1.85;1.75;;;12.60;99.90;;;;;;5145869;27;20079;-66
2024/04/02 01:13:47;;;;;;;2.17;1.25;;;12.50;99.90;;;;;;5152942;27;20066;-65
2024/04/02 01:16:17;;;;;;;2.75;1.63;;;12.60;99.90;;;;;;5155015;27;20042;-66
2024/04/02 01:18:45;;;;;;;1.83;1.73;;;12.50;99.90;;;;;;5145279;27;20023;-66
2024/04/02 01:21:11;;;;;;;1.80;1.70;;;12.40;99.90;;;;;;5153573;27;20504;-66
2024/04/02 01:23:37;;;;;;;2.42;1.63;;;12.40;99.90;;;;;;5137192;27;20023;-67
2024/04/02 01:26:03;;;;;;;2.10;1.67;;;12.50;99.90;;;;;;5134152;27;20037;-67
2024/04/02 01:28:29;;;;;;;1.80;1.70;;;12.40;99.90;;;;;;5152508;27;20042;-67
2024/04/02 01:30:54;;;;;;;2.50;1.85;;;12.30;99.90;;;;;;5142294;27;20518;-67
2024/04/02 01:33:20;;;;;;;2.40;2.00;;;12.40;99.90;;;;;;5150831;27;20043;-67
2024/04/02 01:35:45;;;;;;;1.88;1.65;;;12.30;99.90;;;;;;5152373;27;20038;-67
2024/04/02 01:38:12;;;;;;;2.88;1.88;;;12.40;99.90;;;;;;5145950;27;20054;-67
2024/04/02 01:40:37;;;;;;;2.85;1.85;;;12.40;99.90;;;;;;5144578;27;20018;-67
2024/04/02 01:43:03;;;;;;;2.63;1.85;;;12.30;99.90;;;;;;5122018;27;20079;-67
2024/04/02 01:45:29;;;;;;;3.35;1.83;;;12.30;99.90;;;;;;5127741;27;20054;-66
2024/04/02 01:47:54;;;;;;;3.58;2.42;;;12.30;99.90;;;;;;5150491;27;20026;-67
2024/04/02 01:50:20;;;;;;;2.78;1.83;;;12.30;99.90;;;;;;5146445;27;20027;-66
2024/04/02 01:52:45;;;;;;;2.40;1.77;;;12.40;99.90;;;;;;5153639;27;20030;-66
2024/04/02 01:55:11;;;;;;;2.42;2.22;;;12.30;99.90;;;;;;5152650;27;20023;-66
2024/04/02 01:57:49;;;;;;;4.60;2.35;;;12.30;99.90;;;;;;5153096;27;20407;-66
2024/04/02 02:00:15;;;;;;;3.38;2.03;;;12.30;99.90;;;;;;5152771;27;20025;-67
2024/04/02 02:02:41;;;;;;;2.05;1.85;;;12.00;99.90;;;;;;5149830;27;20488;-66
2024/04/02 02:05:07;;;;;;;4.03;2.35;;;12.20;99.90;;;;;;5131174;27;20038;-66
2024/04/02 02:07:33;;;;;;;3.67;2.33;;;12.30;99.90;;;;;;5130469;27;20021;-66
2024/04/02 02:09:59;;;;;;;2.67;2.20;;;12.10;99.90;;;;;;5137921;27;20094;-66
2024/04/02 02:12:25;;;;;;;2.55;2.35;;;12.20;99.90;;;;;;5149238;27;20026;-66
2024/04/02 02:14:51;;;;;;;2.63;2.22;;;12.20;99.90;;;;;;5140533;27;20567;-66
2024/04/02 02:17:16;;;;;;;2.67;2.20;;;12.10;99.90;;;;;;5133804;27;20018;-66
2024/04/02 02:19:42;;;;;;;3.70;2.35;;;12.20;99.90;;;;;;5149300;27;20049;-66
2024/04/02 02:22:08;;;;;;;2.35;2.15;;;12.10;99.90;;;;;;5153772;27;20052;-66
2024/04/02 02:24:34;;;;;;;3.33;2.90;;;12.10;99.90;;;;;;5149274;27;20401;-66
2024/04/02 02:26:59;;;;;;;3.38;2.58;;;12.20;99.90;;;;;;5154018;27;20106;-66
2024/04/02 02:29:25;;;;;;;2.67;2.45;;;12.10;99.90;;;;;;5147812;27;20038;-66
2024/04/02 02:31:52;;;;;;;2.90;2.60;;;12.00;99.90;;;;;;5150383;27;20058;-66
2024/04/02 02:34:18;;;;;;;5.30;3.15;;;12.10;99.90;;;;;;5145890;27;20448;-66
2024/04/02 02:36:44;;;;;;;4.93;2.72;;;12.00;99.90;;;;;;5144741;27;20138;-66
2024/04/02 02:39:11;;;;;;;3.95;2.65;;;12.10;99.90;;;;;;5147190;27;20337;-66
2024/04/02 02:41:37;;;;;;;3.08;2.53;;;12.00;99.90;;;;;;5145620;27;20472;-66
2024/04/02 02:44:03;;;;;;;3.22;2.25;;;11.90;99.90;;;;;;5145985;27;20026;-66
2024/04/02 02:46:29;;;;;;;3.67;3.03;;;12.00;99.90;;;;;;5134265;27;20041;-66
2024/04/02 02:48:59;;;;;;;3.15;2.50;;;12.10;99.90;;;;;;5151642;27;20030;-66
2024/04/02 02:51:26;;;;;;;3.45;2.88;;;12.10;99.90;;;;;;5146317;27;20106;-66
2024/04/02 02:53:57;;;;;;;4.38;2.45;;;12.20;99.90;;;;;;5150000;27;20380;-66
2024/04/02 02:56:23;;;;;;;3.85;2.28;;;12.20;99.90;;;;;;5146211;27;20528;-66
2024/04/02 02:58:52;;;;;;;3.60;2.75;;;12.10;99.90;;;;;;5148846;27;20062;-66
2024/04/02 03:01:18;;;;;;;3.03;2.72;;;12.20;99.90;;;;;;5152915;27;20027;-66
2024/04/02 03:03:47;;;;;;;3.13;2.60;;;12.10;99.90;;;;;;5152710;27;20027;-66
2024/04/02 03:06:13;;;;;;;3.97;2.75;;;12.10;99.90;;;;;;5128884;27;20295;-67
2024/04/02 03:08:39;;;;;;;4.78;2.80;;;12.10;99.90;;;;;;5129926;28;20144;-67
2024/04/02 03:11:06;;;;;;;4.32;3.10;;;12.20;99.90;;;;;;5145362;27;20026;-66
2024/04/02 03:13:33;;;;;;;3.08;2.80;;;12.20;99.90;;;;;;5150257;27;20027;-66
2024/04/02 03:16:00;;;;;;;4.22;3.00;;;12.10;99.90;;;;;;5145250;27;20034;-66
2024/04/02 03:18:26;;;;;;;3.85;2.83;;;12.00;99.90;;;;;;5147016;27;20105;-66
2024/04/02 03:20:52;;;;;;;6.10;3.33;;;11.90;99.90;;;;;;5146664;27;20109;-66
2024/04/02 03:23:19;;;;;;;4.63;3.00;;;12.00;99.90;;;;;;5149486;27;20023;-66
2024/04/02 03:25:56;;;;;;;4.40;3.15;;;12.00;99.90;;;;;;5152296;27;20031;-66
2024/04/02 03:28:23;;;;;;;4.18;3.20;;;11.90;99.90;;;;;;5149932;27;20031;-66
2024/04/02 03:30:49;;;;;;;5.00;3.33;;;11.90;99.90;;;;;;5152462;27;20086;-66
2024/04/02 03:33:15;;;;;;;3.78;3.40;;;11.90;99.90;;;;;;5146795;27;20035;-65
2024/04/02 03:35:41;;;;;;;4.20;3.80;;;12.00;99.90;;;;;;5150854;27;20018;-65
2024/04/02 03:38:07;;;;;;;3.92;3.50;;;11.90;99.90;;;;;;5153668;27;20027;-66
2024/04/02 03:40:39;;;;;;;5.30;3.75;;;12.00;99.90;;;;;;5154992;27;20030;-65
2024/04/02 03:43:04;;;;;;;4.00;3.60;;;11.90;99.90;;;;;;5151709;27;20026;-66
2024/04/02 03:45:30;;;;;;;5.53;4.32;;;11.90;99.90;;;;;;5149730;27;20019;-66
2024/04/02 03:47:56;;;;;;;4.70;4.20;;;12.00;99.90;;;;;;5155798;27;20030;-66
2024/04/02 03:50:23;;;;;;;5.30;4.47;;;11.80;99.90;;;;;;5124802;27;20027;-66
2024/04/02 03:52:48;;;;;;;6.68;5.68;;;11.90;99.90;;;;;;5147986;27;20030;-66
2024/04/02 03:55:14;;;;;;;6.13;4.50;;;11.90;99.90;;;;;;5155229;27;20022;-66
2024/04/02 03:57:40;;;;;;;5.70;5.18;;;11.80;99.90;;;;;;5141890;27;20128;-66
2024/04/02 04:00:07;;;;;;;5.25;4.75;;;11.90;99.90;;;;;;5134821;27;20034;-66
2024/04/02 04:02:32;;;;;;;6.43;4.82;;;11.90;99.90;;;;;;5144082;27;20019;-66
2024/04/02 04:04:58;;;;;;;4.68;4.22;;;11.90;99.90;;;;;;5147729;27;20366;-66
2024/04/02 04:07:23;;;;;;;4.70;4.18;;;11.90;99.90;;;;;;5150746;27;20353;-66
2024/04/02 04:09:49;;;;;;;5.40;4.60;;;11.80;99.90;;;;;;5150766;27;20050;-66
2024/04/02 04:12:14;;;;;;;4.10;3.67;;;11.80;99.90;;;;;;5144371;27;20059;-66
2024/04/02 04:14:40;;;;;;;3.80;3.50;;;11.80;99.90;;;;;;5145276;27;20019;-66
2024/04/02 04:17:06;;;;;;;5.90;3.92;;;11.80;99.90;;;;;;5150942;27;20484;-66
2024/04/02 04:19:31;;;;;;;4.47;4.00;;;11.80;99.90;;;;;;5148543;27;20038;-65
2024/04/02 04:21:57;;;;;;;5.03;4.45;;;11.80;99.90;;;;;;5153195;27;20015;-66
2024/04/02 04:24:23;;;;;;;5.40;4.18;;;11.70;99.90;;;;;;5153134;27;20037;-66
2024/04/02 04:26:48;;;;;;;5.05;4.28;;;11.70;99.90;;;;;;5152793;27;20014;-66
2024/04/02 04:29:14;;;;;;;4.93;4.45;;;11.60;99.90;;;;;;5151648;27;20031;-66
2024/04/02 04:31:45;;;;;;;4.82;4.13;;;11.60;99.90;;;;;;5148770;27;20368;-66
2024/04/02 04:34:12;;;;;;;4.05;3.65;;;11.60;99.90;;;;;;5152143;27;20107;-67
2024/04/02 04:36:38;;;;;;;3.72;3.30;;;11.60;99.90;;;;;;5139857;27;20027;-66
2024/04/02 04:39:05;;;;;;;4.28;3.17;;;11.60;99.90;;;;;;5130438;27;20163;-66
2024/04/02 04:41:37;;;;;;;4.25;2.92;;;11.70;99.90;;;;;;5156115;27;20332;-66
2024/04/02 04:44:03;;;;;;;3.35;2.72;;;11.70;99.90;;;;;;5155485;27;20098;-66
2024/04/02 04:46:28;;;;;;;4.57;3.10;;;11.70;99.90;;;;;;5141547;27;20125;-66
2024/04/02 04:48:54;;;;;;;4.03;3.50;;;11.60;99.90;;;;;;5126510;27;20504;-66
2024/04/02 04:51:20;;;;;;;3.33;3.00;;;11.60;99.90;;;;;;5121241;27;20139;-66
2024/04/02 04:53:46;;;;;;;4.75;4.03;;;11.60;99.90;;;;;;5148043;27;20464;-66
2024/04/02 04:56:11;;;;;;;3.72;2.80;;;11.60;99.90;;;;;;5154381;27;20038;-65
2024/04/02 04:58:37;;;;;;;3.72;2.70;;;11.60;99.90;;;;;;5150105;27;20027;-66
2024/04/02 05:01:04;;;;;;;3.20;2.67;;;11.50;99.90;;;;;;5138964;27;20121;-66
2024/04/02 05:03:30;;;;;;;4.70;3.20;;;11.50;99.90;;;;;;5143335;27;20062;-66
2024/04/02 05:06:06;;;;;;;6.53;3.75;;;11.60;99.90;;;;;;5149360;27;20057;-66
2024/04/02 05:08:33;;;;;;;4.35;3.03;;;11.50;99.90;;;;;;5152183;27;20111;-66
2024/04/02 05:11:01;;;;;;;3.50;3.20;;;11.60;99.90;;;;;;5151960;27;20052;-66
2024/04/02 05:13:28;;;;;;;4.20;2.85;;;11.60;99.90;;;;;;5150327;27;20028;-67
2024/04/02 05:15:53;;;;;;;3.72;3.05;;;11.70;99.90;;;;;;5150641;27;20403;-67
2024/04/02 05:18:19;;;;;;;5.45;3.60;;;11.70;99.90;;;;;;5149412;27;20044;-67
2024/04/02 05:20:45;;;;;;;4.03;3.20;;;11.70;99.90;;;;;;5149718;27;20022;-67
2024/04/02 05:23:11;;;;;;;5.93;3.38;;;11.60;99.90;;;;;;5151825;27;20023;-67
2024/04/02 05:25:37;;;;;;;4.30;3.22;;;11.70;99.90;;;;;;5134753;27;20022;-66
2024/04/02 05:28:03;;;;;;;4.93;3.25;;;11.60;99.90;;;;;;5134381;27;20026;-67
2024/04/02 05:30:29;;;;;;;5.13;3.20;;;11.60;99.90;;;;;;5144646;27;20063;-67
2024/04/02 05:32:55;;;;;;;4.07;3.05;;;11.60;99.90;;;;;;5136706;27;20031;-67
2024/04/02 05:35:21;;;;;;;3.60;2.55;;;11.70;99.90;;;;;;5146381;27;20537;-67
2024/04/02 05:37:51;;;;;;;3.53;3.00;;;11.70;99.90;;;;;;5151421;27;20030;-66
2024/04/02 05:40:20;;;;;;;3.70;2.72;;;11.80;99.90;;;;;;5146806;27;20398;-66
2024/04/02 05:42:47;;;;;;;4.28;3.13;;;11.70;99.90;;;;;;5144577;27;20388;-68
2024/04/02 05:45:14;;;;;;;4.00;3.03;;;11.70;99.90;;;;;;5136559;27;20031;-68
2024/04/02 05:47:39;;;;;;;4.05;3.00;;;11.60;99.90;;;;;;5140823;27;20019;-69
2024/04/02 05:50:05;;;;;;;4.53;2.85;;;11.60;99.90;;;;;;5146239;27;20488;-68
2024/04/02 05:52:31;;;;;;;4.43;3.33;;;11.60;99.90;;;;;;5143116;27;20019;-68
2024/04/02 05:54:56;;;;;;;4.18;3.58;;;11.60;99.90;;;;;;5146192;27;20035;-67
2024/04/02 05:57:22;;;;;;;4.30;3.50;;;11.70;99.90;;;;;;5137908;27;20027;-65
2024/04/02 05:59:51;;;;;;;4.55;3.58;;;11.60;99.90;;;;;;5153740;27;20026;-71
2024/04/02 06:02:17;;;;;;;6.53;3.70;;;11.70;99.90;;;;;;5143858;27;20018;-68
2024/04/02 06:04:43;;;;;;;4.07;3.22;;;11.70;99.90;;;;;;5125093;27;20030;-70
2024/04/02 06:07:09;;;;;;;4.65;3.70;;;11.70;99.90;;;;;;5145329;27;20030;-65
2024/04/02 06:09:36;;;;;;;6.07;3.25;;;11.80;99.90;;;;;;5141158;27;20083;-62
2024/04/02 06:12:02;;;;;;;4.97;3.55;;;11.70;99.90;;;;;;5147897;27;20421;-66
2024/04/02 06:14:27;;;;;;;8.48;4.07;;;11.70;99.90;;;;;;5153483;27;20025;-69
2024/04/02 06:16:53;;;;;;;3.65;3.00;;;11.70;99.90;;;;;;5149303;27;20023;-68
2024/04/02 06:19:19;;;;;;;4.47;3.25;;;11.80;99.90;;;;;;5137073;27;20518;-64
2024/04/02 06:21:45;;;;;;;3.92;3.33;;;11.80;99.90;;;;;;5152214;27;20089;-66
2024/04/02 06:24:10;;;;;;;6.32;3.13;;;11.90;99.90;;;;;;5150897;27;20063;-68
2024/04/02 06:26:36;;;;;;;4.07;3.00;;;11.90;99.90;;;;;;5153481;27;20019;-67
2024/04/02 06:29:01;;;;;;;5.28;3.15;;;12.00;99.90;;;;;;5152448;27;20483;-65
2024/04/02 06:31:27;;;;;;;3.83;3.00;;;12.00;99.90;;;;;;5150054;27;20388;-67
2024/04/02 06:33:53;;;;;;;5.13;3.80;;;11.80;99.90;;;;;;5142809;27;20043;-70
2024/04/02 06:36:19;;;;;;;5.05;3.88;;;11.80;99.90;;;;;;5153784;27;20392;-64
2024/04/02 06:38:45;;;;;;;4.15;3.00;;;11.90;99.90;;;;;;5153984;27;20037;-68
2024/04/02 06:41:10;;;;;;;5.13;3.63;;;12.00;99.90;;;;;;5149042;27;20027;-65
2024/04/02 06:43:36;;;;;;;5.18;4.15;;;11.90;99.90;;;;;;5147509;27;20117;-67
2024/04/02 06:46:02;;;;;;;8.25;4.20;;;11.90;99.90;;;;;;5141214;27;20403;-72
2024/04/02 06:48:28;;;;;;;4.63;4.15;;;12.00;99.90;;;;;;5141410;27;20030;-69
2024/04/02 06:51:04;;;;;;;4.65;4.03;;;12.00;99.90;;;;;;5139021;27;20084;-62
2024/04/02 06:53:31;;;;;;;5.68;3.92;;;12.00;99.90;;;;;;5144083;27;20026;-67
2024/04/02 06:55:57;;;;;;;4.70;3.72;;;12.10;99.90;;;;;;5138788;27;20477;-70
2024/04/02 06:58:23;;;;;;;4.65;3.53;;;12.10;99.90;;;;;;5135560;27;20034;-71
2024/04/02 07:00:49;;;;;;;6.03;3.47;;;12.10;99.90;;;;;;5146758;27;20510;-67
2024/04/02 07:03:16;;;;;;;5.40;4.00;;;12.10;99.90;;;;;;5141896;27;20027;-67
2024/04/02 07:05:43;;;;;;;5.63;3.85;;;12.10;99.90;;;;;;5132206;27;20187;-70
2024/04/02 07:08:09;;;;;;;4.82;3.85;;;12.10;99.90;;;;;;5133780;27;20042;-67
2024/04/02 07:10:35;;;;;;;5.95;3.70;;;12.20;99.90;;;;;;5150696;27;20396;-70
2024/04/02 07:13:01;;;;;;;6.40;3.50;;;12.30;99.90;;;;;;5143178;27;20031;-63
2024/04/02 07:15:27;;;;;;;8.65;3.58;;;12.20;99.90;;;;;;5138908;27;20022;-75
2024/04/02 07:17:52;;;;;;;3.40;3.05;;;12.30;99.90;;;;;;5152397;27;20020;-65
2024/04/02 07:20:18;;;;;;;4.10;2.55;;;12.30;99.90;;;;;;5148681;27;20097;-64
2024/04/02 07:22:44;;;;;;;5.15;2.88;;;12.30;99.90;;;;;;5153292;27;20358;-61
2024/04/02 07:25:11;;;;;;;9.70;3.17;;;12.30;99.90;;;;;;5152546;27;20023;-67
2024/04/02 07:27:37;;;;;;;3.55;2.83;;;12.40;99.90;;;;;;5154224;27;20037;-64
2024/04/02 07:30:04;;;;;;;4.07;2.72;;;12.50;99.90;;;;;;5140594;27;20043;-62
2024/04/02 07:32:57;;;;;;;3.85;2.90;;;12.50;99.90;;;;;;5148418;27;20468;-65
2024/04/02 07:35:23;;;;;;;6.28;3.47;;;12.50;99.90;;;;;;5152539;27;20532;-62
2024/04/02 07:37:49;;;;;;;4.35;3.17;;;12.50;99.90;;;;;;5136664;27;20023;-61
2024/04/02 07:40:14;;;;;;;7.38;4.93;;;12.60;99.90;;;;;;5151983;27;20027;-63
2024/04/02 07:42:40;;;;;;;8.38;5.10;;;12.50;99.90;;;;;;5143702;27;20037;-62
2024/04/02 07:45:06;;;;;;;5.43;3.65;;;12.60;99.90;;;;;;5135862;27;20029;-66
2024/04/02 07:47:31;;;;;;;6.28;4.28;;;12.70;99.90;;;;;;5151160;27;20061;-69
2024/04/02 07:49:57;;;;;;;6.28;4.43;;;12.70;99.90;;;;;;5153224;27;20503;-72
2024/04/02 07:52:23;;;;;;;5.25;3.20;;;12.80;99.90;;;;;;5148960;27;20093;-61
2024/04/02 07:54:48;;;;;;;6.90;2.42;;;12.80;99.90;;;;;;5148794;27;20034;-60
2024/04/02 07:57:14;;;;;;;3.67;2.63;;;12.80;99.90;;;;;;5146811;27;20027;-65
2024/04/02 07:59:39;;;;;;;2.78;2.42;;;12.90;99.90;;;;;;5146480;27;20034;-58
2024/04/02 08:02:05;;;;;;;4.00;2.90;;;12.90;99.90;;;;;;5149828;27;20027;-55
2024/04/02 08:04:31;;;;;;;4.88;2.50;;;13.00;99.90;;;;;;5147860;27;20466;-52
2024/04/02 08:06:56;;;;;;;5.97;2.45;;;13.00;99.90;;;;;;5152359;27;20034;-48
2024/04/02 08:09:22;;;;;;;4.53;2.00;;;13.00;99.90;;;;;;5147959;27;21581;-51
2024/04/02 08:11:48;;;;;;;3.88;2.65;;;13.00;99.90;;;;;;5152336;27;20015;-56
2024/04/02 08:14:14;;;;;;;5.13;3.70;;;13.10;99.90;;;;;;5131652;27;20127;-60
2024/04/02 08:16:40;;;;;;;4.28;2.95;;;13.20;99.90;;;;;;5141185;27;20023;-59
2024/04/02 08:19:05;;;;;;;3.47;2.92;;;13.30;99.90;;;;;;5142886;27;20472;-58
2024/04/02 08:21:31;;;;;;;2.97;1.83;;;13.30;99.90;;;;;;5154820;27;20060;-56
2024/04/02 08:23:57;;;;;;;5.10;2.42;;;13.40;99.90;;;;;;5125818;27;20030;-68
2024/04/02 08:26:23;;;;;;;5.43;2.10;;;13.40;99.90;;;;;;5145221;27;20025;-67
2024/04/02 08:28:49;;;;;;;4.68;2.15;;;13.50;99.90;;;;;;5132195;27;20070;-70
2024/04/02 08:31:15;;;;;;;3.60;1.95;;;13.50;99.90;;;;;;5150374;27;20043;-63
2024/04/02 08:33:40;;;;;;;3.13;1.50;;;13.60;99.90;;;;;;5133920;27;20059;-67
2024/04/02 08:36:06;;;;;;;4.35;1.88;;;13.70;99.90;;;;;;5155710;27;20031;-67
2024/04/02 08:38:32;;;;;;;4.32;1.70;;;13.60;99.90;;;;;;5155522;27;20019;-67
2024/04/02 08:41:04;;;;;;;5.10;1.30;;;13.70;99.90;;;;;;5156029;27;20033;-65
2024/04/02 08:43:30;;;;;;;6.25;1.60;;;13.80;99.90;;;;;;5146290;27;20042;-69
2024/04/02 08:45:58;;;;;;;4.97;1.65;;;13.80;99.90;;;;;;5147136;27;20102;-63
2024/04/02 08:48:25;;;;;;;3.78;1.33;;;13.90;99.90;;;;;;5142945;27;20037;-69
2024/04/02 08:50:53;;;;;;;4.45;1.35;;;13.90;99.90;;;;;;5145396;27;20019;-65
2024/04/02 08:53:19;;;;;;;4.80;1.85;;;13.90;99.90;;;;;;5144375;27;20370;-69
2024/04/02 08:56:28;;;;;;;3.53;1.40;;;14.00;99.90;;;;;;5147473;27;20023;-63
2024/04/02 08:58:55;;;;;;;7.85;1.88;;;14.00;99.90;;;;;;5152772;27;20027;-68
2024/04/02 09:01:21;;;;;;;7.32;2.05;;;14.10;99.90;;;;;;5146899;27;20038;-54
2024/04/02 09:03:46;;;;;;;4.57;1.38;;;14.20;99.90;;;;;;5146938;27;20023;-60
2024/04/02 09:06:13;;;;;;;3.30;1.45;;;14.20;99.90;;;;;;5152683;27;20053;-57
2024/04/02 09:08:45;;;;;;;5.10;1.50;;;14.20;99.90;;;;;;5155155;27;20518;-50
2024/04/02 09:11:12;;;;;;;9.65;2.08;;;14.30;99.90;;;;;;5140226;27;20010;-54
2024/04/02 09:13:39;;;;;;;4.25;1.27;;;14.30;99.90;;;;;;5150138;27;20079;-54
2024/04/02 09:16:06;;;;;;;1.58;1.20;;;14.40;99.90;;;;;;5149837;27;20025;-52
2024/04/02 09:18:40;;;;;;;5.97;1.33;;;14.40;99.90;;;;;;5137863;27;20031;-59
2024/04/02 09:21:07;;;;;;;10.07;1.27;;;14.40;99.90;;;;;;5142848;27;20071;-67
2024/04/02 09:23:32;;;;;;;4.60;1.85;;;14.50;99.90;;;;;;5153136;27;20027;-64
2024/04/02 09:25:58;;;;;;;4.20;1.27;;;14.60;99.90;;;;;;5135872;27;20093;-68
2024/04/02 09:28:24;;;;;;;5.93;1.65;;;14.60;99.90;;;;;;5148410;27;20109;-67
2024/04/02 09:30:51;;;;;;;5.28;1.65;;;14.60;99.90;;;;;;5144683;27;20361;-66
2024/04/02 09:33:17;;;;;;;4.25;1.30;;;14.70;99.90;;;;;;5141916;27;20041;-70
2024/04/02 09:36:09;;;;;;;3.08;1.50;;;14.80;99.90;;;;;;5146959;27;20042;-68
2024/04/02 09:38:36;;;;;;;4.63;1.10;;;14.70;99.90;;;;;;5154662;27;20031;-65
2024/04/02 09:41:03;;;;;;;3.45;1.67;;;14.80;99.90;;;;;;5139528;27;20034;-61
2024/04/02 09:43:39;;;;;;;5.72;2.42;;;14.90;99.90;;;;;;5133682;27;20479;-62
2024/04/02 09:46:07;;;;;;;5.10;1.10;;;14.90;99.90;;;;;;5146791;27;20430;-65
2024/04/02 09:48:39;;;;;;;6.95;2.00;;;14.90;99.90;;;;;;5143956;27;20090;-61
2024/04/02 09:51:06;;;;;;;6.65;1.98;;;15.00;99.90;;;;;;5154260;27;20071;-60
2024/04/02 09:53:34;;;;;;;1.70;0.95;;;15.10;99.90;;;;;;5135658;27;20034;-61
2024/04/02 10:02:44;;;;;;;4.25;1.00;;;15.30;99.90;;;;;;5145588;27;20061;-66
2024/04/02 10:05:20;;;;;;;3.72;1.17;;;15.30;99.90;;;;;;5143441;27;20376;-56
2024/04/02 10:07:50;;;;;;;2.33;1.17;;;15.40;99.90;;;;;;5136601;27;20201;-61
2024/04/02 10:10:16;;;;;;;7.15;1.92;;;15.40;99.90;;;;;;5131526;27;20041;-62
2024/04/02 10:12:42;;;;;;;5.50;1.33;;;;;;;;;;5129770;27;20023;-63
2024/04/02 10:15:12;;;;;;;3.70;1.08;;;;;;;;;;5139740;27;20069;-62
2024/04/02 10:17:38;;;;;;;2.05;1.40;;;;;;;;;;5141347;27;20087;-63
2024/04/02 10:23:18;;;;;;;4.85;1.20;;;;;;;;;;5147798;27;20067;-66
2024/04/02 10:25:47;;;;;;;2.22;1.00;;;;;;;;;;5150449;27;20122;-59
2024/04/02 10:28:14;;;;;;;3.55;1.00;;;;;;;;;;5143527;27;20074;-65
2024/04/02 10:30:46;;;;;;;3.63;0.60;;;;;;;;;;5145932;27;20061;-64
2024/04/02 10:33:18;;;;;;;1.85;0.80;;;;;;;;;;5143453;27;20046;-61
2024/04/02 10:35:45;;;;;;;3.90;0.90;;;;;;;;;;5132727;27;20034;-68
2024/04/02 10:38:11;;;;;;;1.75;0.65;;;;;;;;;;5145930;27;20091;-64
2024/04/02 10:40:38;;;;;;;3.17;1.08;;;;;;;;;;5146039;27;20138;-68
2024/04/02 10:43:04;;;;;;;4.88;1.52;;;;;;;;;;5131569;27;20033;-68
2024/04/02 10:45:30;;;;;;;3.55;1.15;;;;;;;;;;5151918;27;20046;-62
2024/04/02 10:47:57;;;;;;;2.20;0.88;;;;;;;;;;5146457;27;20049;-63
2024/04/02 10:50:25;;;;;;;3.03;1.00;;;;;;;;;;5155699;27;20045;-61
2024/04/02 10:52:54;;;;;;;3.72;0.93;;;;;;;;;;5157154;27;20027;-51
2024/04/02 10:55:21;;;;;;;3.92;1.08;;;;;;;;;;5148043;27;20035;-65
2024/04/02 10:57:47;;;;;;;5.72;1.30;;;;;;;;;;5157327;27;20026;-64
2024/04/02 11:00:14;;;;;;;3.45;0.80;;;;;;;;;;5154358;27;20477;-64
2024/04/02 11:02:59;;;;;;;2.40;1.38;;;;;;;;;;5143117;27;20030;-59
2024/04/02 11:05:25;;;;;;;3.67;1.98;;;;;;;;;;5151287;27;20020;-58
2024/04/02 11:07:51;;;;;;;1.83;1.25;;;;;;;;;;5150094;27;20029;-58
2024/04/02 11:10:17;;;;;;;2.92;0.80;;;;;;;;;;5151210;27;20091;-62
2024/04/02 11:12:43;;;;;;;5.75;1.08;;;;;;;;;;5134466;27;20019;-62
2024/04/02 11:15:10;;;;;;;3.47;1.00;;;;;;;;;;5137966;27;20035;-60
2024/04/02 11:17:36;;;;;;;4.20;1.63;;;;;;;;;;5144015;27;20015;-59
2024/04/02 11:20:09;;;;;;;4.22;1.83;;;;;;;;;;5148818;27;20041;-56
2024/04/02 11:25:20;;;;;;;3.47;1.30;;;;;;;;;;5143254;27;20042;-60
2024/04/02 11:27:46;;;;;;;2.15;0.75;;;;;;;;;;5137644;27;20031;-60
2024/04/02 11:30:14;;;;;;;3.63;1.55;;;;;;;;;;5157229;27;20046;-61
2024/04/02 11:32:40;;;;;;;3.92;1.65;;;;;;;;;;5153157;27;20027;-61
2024/04/02 11:35:10;;;;;;;1.35;1.23;;;;;;;;;;5157060;27;20047;-60
2024/04/02 11:37:37;;;;;;;2.63;1.50;;;;;;;;;;5155439;27;20027;-61
2024/04/02 11:40:07;;;;;;;4.07;1.45;;;;;;;;;;5156424;27;20027;-60
2024/04/02 11:42:34;;;;;;;1.75;1.40;;;;;;;;;;5150100;27;20015;-60
2024/04/02 11:45:00;;;;;;;2.63;1.00;;;;;;;;;;5149707;27;20066;-59
2024/04/02 11:47:27;;;;;;;2.30;1.05;;;;;;;;;;5156886;27;20126;-60
2024/04/02 11:49:53;;;;;;;1.30;0.85;;;;;;;;;;5156816;27;20034;-60
2024/04/02 11:52:19;;;;;;;1.90;1.10;;;;;;;;;;5143638;27;20031;-60
2024/04/02 11:54:45;;;;;;;1.45;0.90;;;;;;;;;;5139157;27;20079;-57
2024/04/02 12:00:17;;;;;;;2.50;1.15;;;;;;;;;;5156961;27;20563;-53
2024/04/02 12:02:47;;;;;;;2.45;0.82;;;;;;;;;;5155100;27;20018;-50
2024/04/02 12:05:15;;;;;;;1.75;0.60;;;;;;;;;;5148634;27;20030;-51
2024/04/02 12:07:41;;;;;;;2.03;0.90;;;;;;;;;;5151090;27;20033;-52
2024/04/02 12:10:08;;;;;;;5.60;0.90;;;;;;;;;;5152653;27;20034;-59
2024/04/02 12:12:34;;;;;;;0.70;0.60;;;15.50;99.90;;;;;;5156396;27;20444;-60
2024/04/02 12:15:03;;;;;;;0.88;0.70;;;18.90;99.90;;;;;;5151156;27;20079;-61
2024/04/02 12:17:29;;;;;;;1.63;0.70;;;18.90;99.90;;;;;;5150705;27;20062;-64
2024/04/02 12:19:55;;;;;;;3.85;1.00;;;19.20;99.90;;;;;;5153130;27;20029;-64
2024/04/02 12:22:21;;;;;;;3.67;0.70;;;;;;;;;;5152585;27;20097;-64
2024/04/02 12:24:47;;;;;;;0.80;0.60;;;;;;;;;;5152375;27;20026;-63
2024/04/02 12:27:13;;;;;;;2.55;0.60;;;;;;;;;;5136738;27;20381;-64
2024/04/02 12:29:39;;;;;;;1.88;0.98;;;;;;;;;;5155503;27;20507;-64
2024/04/02 12:32:07;;;;;;;2.40;1.02;;;;;;;;;;5140995;27;20422;-64
2024/04/02 12:34:33;;;;;;;2.20;1.00;;;;;;;;;;5155308;27;20062;-64
2024/04/02 12:37:00;;;;;;;2.47;1.48;;;;;;;;;;5155653;27;20034;-63
2024/04/02 12:39:26;;;;;;;2.88;1.30;;;;;;;;;;5155929;27;20018;-63
2024/04/02 12:41:52;;;;;;;1.77;1.02;;;;;;;;;;5156124;27;20035;-63
2024/04/02 12:44:18;;;;;;;3.03;1.08;;;;;;;;;;5156099;27;20395;-63
2024/04/02 12:46:44;;;;;;;2.05;0.85;;;;;;;;;;5156295;27;20023;-63
2024/04/02 12:49:12;;;;;;;2.95;1.20;;;;;;;;;;5156007;27;20530;-63
2024/04/02 12:51:38;;;;;;;1.65;0.70;;;;;;;;;;5155859;27;20026;-63
2024/04/02 12:54:05;;;;;;;1.45;0.80;;;;;;;;;;5155887;27;20027;-63
2024/04/02 12:56:31;;;;;;;1.85;1.05;;;;;;;;;;5155814;27;20015;-63
2024/04/02 12:58:58;;;;;;;3.67;1.10;;;;;;;;;;5155804;27;20482;-63
2024/04/02 13:01:24;;;;;;;2.97;0.80;;;;;;;;;;5155693;27;20067;-63
2024/04/02 13:03:50;;;;;;;1.45;1.00;;;;;;;;;;5155764;27;20106;-63
2024/04/02 13:06:17;;;;;;;2.20;0.90;;;;;;;;;;5155453;27;20098;-63
2024/04/02 13:08:44;;;;;;;2.97;0.70;;;;;;;;;;5154709;27;20034;-63
2024/04/02 13:11:11;;;;;;;2.63;0.90;;;;;;;;;;5155517;27;20023;-62
2024/04/02 13:13:39;;;;;;;1.63;1.52;;;;;;;;;;5155326;27;20054;-62
2024/04/02 13:16:08;;;;;;;2.47;1.60;;;;;;;;;;5155364;27;20022;-63
2024/04/02 13:18:34;;;;;;;4.45;2.20;;;;;;;;;;5155272;27;20384;-62
2024/04/02 13:21:00;;;;;;;1.67;1.00;;;;;;;;;;5155129;27;20353;-62
2024/04/02 13:23:26;;;;;;;3.10;1.38;;;;;;;;;;5155401;27;20090;-63
2024/04/02 13:25:52;;;;;;;1.75;1.30;;;;;;;;;;5155101;27;20017;-63
2024/04/02 13:28:18;;;;;;;3.05;1.38;;;;;;;;;;5155017;27;20030;-63
2024/04/02 13:30:44;;;;;;;1.20;1.10;;;;;;;;;;5154955;27;20114;-63
2024/04/02 13:33:10;;;;;;;2.55;1.13;;;;;;;;;;5145007;27;20023;-63